Time;durP1;ratioP1;P1;durP2;ratioP2;P2;SDS_P1;SDS_P2;PMS_P1;PMS_P2;Temp;Humidity;BMP_temperature;BMP_pressure;BME280_temperature;BME280_humidity;BME280_pressure;Samples;Min_cycle;Max_cycle;Signal;HPM_P1;HPM_P2
2022/12/10 00:00:17;;;;;;;;;;;-0.10;99.90;;;;;;6127721;23;19960;-76
2022/12/10 00:02:43;;;;;;;;;;;0.00;99.90;;;;;;6127952;23;19901;-76
2022/12/10 00:05:10;;;;;;;;;;;-0.20;99.90;;;;;;6126794;23;19919;-75
2022/12/10 00:07:35;;;;;;;;;;;0.00;99.90;;;;;;6127393;23;19905;-75
2022/12/10 00:10:01;;;;;;;;;;;0.20;99.90;;;;;;6127435;23;19928;-76
2022/12/10 00:12:26;;;;;;;;;;;0.30;99.90;;;;;;6127574;23;19900;-76
2022/12/10 00:14:52;;;;;;;;;;;0.20;99.90;;;;;;6127516;23;19991;-77
2022/12/10 00:17:17;;;;;;;;;;;0.20;99.90;;;;;;6101658;23;19908;-77
2022/12/10 00:19:43;;;;;;;;;;;0.20;99.90;;;;;;6101365;23;20316;-76
2022/12/10 00:22:09;;;;;;;;;;;0.20;99.90;;;;;;6127028;23;19911;-76
2022/12/10 00:24:34;;;;;;;;;;;0.10;99.90;;;;;;6127389;23;19900;-74
2022/12/10 00:27:00;;;;;;;;;;;0.10;99.90;;;;;;6127711;23;19901;-75
2022/12/10 00:29:25;;;;;;;;;;;0.10;99.90;;;;;;6127085;23;19983;-75
2022/12/10 00:31:51;;;;;;;;;;;0.10;99.90;;;;;;6126824;23;20316;-76
2022/12/10 00:34:16;;;;;;;;;;;0.10;99.90;;;;;;6127306;23;19905;-76
2022/12/10 00:36:46;;;;;;;;;;;0.10;99.90;;;;;;6127292;23;20343;-76
2022/12/10 00:39:12;;;;;;;;;;;0.10;99.90;;;;;;6101100;23;19939;-75
2022/12/10 00:41:38;;;;;;;;;;;0.20;99.90;;;;;;6127344;23;19932;-76
2022/12/10 00:44:04;;;;;;;;;;;0.20;99.90;;;;;;6127324;23;19955;-75
2022/12/10 00:46:30;;;;;;;;;;;0.20;99.90;;;;;;6127927;23;19901;-75
2022/12/10 00:48:57;;;;;;;;;;;0.20;99.90;;;;;;6127211;23;19979;-77
2022/12/10 00:51:24;;;;;;;;;;;0.20;99.90;;;;;;6127290;23;19923;-76
2022/12/10 00:53:51;;;;;;;;;;;0.10;99.90;;;;;;6127097;23;19909;-76
2022/12/10 00:56:18;;;;;;;;;;;0.00;99.90;;;;;;6127677;23;20404;-76
2022/12/10 00:58:44;;;;;;;;;;;0.00;99.90;;;;;;6127575;23;20316;-75
2022/12/10 01:01:11;;;;;;;;;;;0.00;99.90;;;;;;6127261;23;19908;-77
2022/12/10 01:03:38;;;;;;;;;;;0.00;99.90;;;;;;6126599;23;19909;-75
2022/12/10 01:06:14;;;;;;;;;;;0.10;99.90;;;;;;6127335;23;19905;-76
2022/12/10 01:08:40;;;;;;;;;;;0.10;99.90;;;;;;6127442;23;19912;-75
2022/12/10 01:11:06;;;;;;;;;;;0.10;99.90;;;;;;6127132;23;19901;-75
2022/12/10 01:13:31;;;;;;;;;;;0.10;99.90;;;;;;6127411;23;19916;-75
2022/12/10 01:15:59;;;;;;;;;;;0.00;99.90;;;;;;6127571;23;19900;-75
2022/12/10 01:18:25;;;;;;;;;;;0.00;99.90;;;;;;6101216;23;19901;-75
2022/12/10 01:20:50;;;;;;;;;;;0.00;99.90;;;;;;6127265;23;19976;-76
2022/12/10 01:23:16;;;;;;;;;;;0.00;99.90;;;;;;6127087;23;19901;-76
2022/12/10 01:25:42;;;;;;;;;;;0.00;99.90;;;;;;6127066;23;19901;-76
2022/12/10 01:28:07;;;;;;;;;;;-0.10;99.90;;;;;;6127511;23;20382;-75
2022/12/10 01:30:33;;;;;;;;;;;-0.10;99.90;;;;;;6126910;23;19908;-75
2022/12/10 01:32:58;;;;;;;;;;;-0.20;99.90;;;;;;6127035;23;19943;-76
2022/12/10 01:35:24;;;;;;;;;;;-0.20;99.90;;;;;;6101008;23;19900;-76
2022/12/10 01:37:49;;;;;;;;;;;-0.30;99.90;;;;;;6127176;23;19900;-75
2022/12/10 01:40:15;;;;;;;;;;;-0.40;99.90;;;;;;6127323;23;19900;-76
2022/12/10 01:42:40;;;;;;;;;;;-0.50;99.90;;;;;;6127767;23;20343;-75
2022/12/10 01:45:08;;;;;;;;;;;-0.70;99.90;;;;;;6128992;23;19905;-75
2022/12/10 01:47:34;;;;;;;;;;;-0.60;99.90;;;;;;6128705;23;19956;-75
2022/12/10 01:50:00;;;;;;;;;;;-0.50;99.90;;;;;;6128912;23;19901;-74
2022/12/10 01:52:26;;;;;;;;;;;-0.50;99.90;;;;;;6128998;23;19907;-76
2022/12/10 01:54:52;;;;;;;;;;;-0.50;99.90;;;;;;6128811;23;19972;-75
2022/12/10 01:57:20;;;;;;;;;;;-0.50;99.90;;;;;;6128649;23;19901;-75
2022/12/10 01:59:46;;;;;;;;;;;-0.40;99.90;;;;;;6128670;23;19954;-75
2022/12/10 02:02:17;;;;;;;;;;;-0.60;99.90;;;;;;6128635;23;19907;-75
2022/12/10 02:05:01;;;;;;;;;;;-0.60;99.90;;;;;;6128429;23;20335;-76
2022/12/10 02:07:30;;;;;;;;;;;-0.60;99.90;;;;;;6128864;23;19905;-75
2022/12/10 02:10:08;;;;;;;;;;;-0.80;99.90;;;;;;6128775;23;20209;-75
2022/12/10 02:12:45;;;;;;;;;;;-0.70;99.90;;;;;;6128662;23;19901;-75
2022/12/10 02:15:20;;;;;;;;;;;-0.60;99.90;;;;;;6128919;23;19900;-75
2022/12/10 02:17:54;;;;;;;;;;;-0.60;99.90;;;;;;6128704;23;19901;-75
2022/12/10 02:20:25;;;;;;;;;;;-0.60;99.90;;;;;;6128493;23;20239;-75
2022/12/10 02:23:00;;;;;;;;;;;-0.50;99.90;;;;;;6128516;23;19907;-75
2022/12/10 02:25:48;;;;;;;;;;;-0.50;99.90;;;;;;6128579;23;19908;-74
2022/12/10 02:28:14;;;;;;;;;;;-0.60;99.90;;;;;;6086793;23;19983;-75
2022/12/10 02:30:41;;;;;;;;;;;-0.60;99.90;;;;;;6128798;23;19939;-75
2022/12/10 02:33:07;;;;;;;;;;;-0.70;99.90;;;;;;6128490;23;19901;-75
2022/12/10 02:35:35;;;;;;;;;;;-0.60;99.90;;;;;;6128395;23;19976;-76
2022/12/10 02:38:12;;;;;;;;;;;-0.60;99.90;;;;;;6128336;23;19905;-75
2022/12/10 02:40:39;;;;;;;;;;;-0.60;99.90;;;;;;6128398;23;19908;-75
2022/12/10 02:43:06;;;;;;;;;;;-0.90;99.90;;;;;;6102420;23;19924;-75
2022/12/10 02:45:31;;;;;;;;;;;-0.90;99.90;;;;;;6128959;23;20298;-76
2022/12/10 02:47:58;;;;;;;;;;;-1.10;99.90;;;;;;6128334;23;19907;-77
2022/12/10 02:50:24;;;;;;;;;;;-1.10;99.90;;;;;;6128339;23;19901;-76
2022/12/10 02:52:50;;;;;;;;;;;-0.90;99.90;;;;;;6128013;23;19912;-75
2022/12/10 02:55:15;;;;;;;;;;;-0.80;99.90;;;;;;6127997;23;19901;-75
2022/12/10 02:57:46;;;;;;;;;;;-0.70;99.90;;;;;;6127791;23;19911;-74
2022/12/10 03:00:15;;;;;;;;;;;-0.70;99.90;;;;;;6128187;23;20391;-76
2022/12/10 03:02:53;;;;;;;;;;;-0.70;99.90;;;;;;6128037;23;19901;-74
2022/12/10 03:05:22;;;;;;;;;;;-0.70;99.90;;;;;;6127551;23;19913;-75
2022/12/10 03:08:01;;;;;;;;;;;-0.80;99.90;;;;;;6128208;23;19905;-75
2022/12/10 03:10:26;;;;;;;;;;;-1.00;99.90;;;;;;6127991;23;19936;-76
2022/12/10 03:12:58;;;;;;;;;;;-1.60;99.90;;;;;;6127871;23;19908;-76
2022/12/10 03:15:25;;;;;;;;;;;-1.70;99.90;;;;;;6128117;23;19972;-75
2022/12/10 03:17:50;;;;;;;;;;;-1.70;99.90;;;;;;6127920;23;19979;-76
2022/12/10 03:20:16;;;;;;;;;;;-1.40;99.90;;;;;;6101978;23;19991;-75
2022/12/10 03:22:43;;;;;;;;;;;-1.30;99.90;;;;;;6128038;23;19975;-77
2022/12/10 03:25:10;;;;;;;;;;;-1.30;99.90;;;;;;6127677;23;19913;-76
2022/12/10 03:27:38;;;;;;;;;;;-1.20;99.90;;;;;;6127820;23;19907;-75
2022/12/10 03:30:04;;;;;;;;;;;-1.10;99.90;;;;;;6127755;23;20387;-76
2022/12/10 03:32:30;;;;;;;;;;;-1.00;99.90;;;;;;6128083;23;19905;-75
2022/12/10 03:34:57;;;;;;;;;;;-0.90;99.90;;;;;;6128205;23;19952;-74
2022/12/10 03:37:23;;;;;;;;;;;-1.00;99.90;;;;;;6128003;23;19900;-76
2022/12/10 03:39:49;;;;;;;;;;;-1.00;99.90;;;;;;6127873;23;19987;-76
2022/12/10 03:42:15;;;;;;;;;;;-0.90;99.90;;;;;;6127681;23;19979;-75
2022/12/10 03:44:41;;;;;;;;;;;-0.80;99.90;;;;;;6101637;23;20240;-74
2022/12/10 03:47:08;;;;;;;;;;;-0.80;99.90;;;;;;6127867;23;20332;-74
2022/12/10 03:49:33;;;;;;;;;;;-0.80;99.90;;;;;;6128138;23;19984;-77
2022/12/10 03:51:59;;;;;;;;;;;-0.90;99.90;;;;;;6127885;23;19936;-76
2022/12/10 03:54:25;;;;;;;;;;;-1.10;99.90;;;;;;6101625;23;20343;-75
2022/12/10 03:56:50;;;;;;;;;;;-1.30;99.90;;;;;;6101629;23;19901;-76
2022/12/10 03:59:16;;;;;;;;;;;-1.20;99.90;;;;;;6127368;23;19901;-74
2022/12/10 04:01:41;;;;;;;;;;;-1.00;99.90;;;;;;6127645;23;19936;-75
2022/12/10 04:04:08;;;;;;;;;;;-1.00;99.90;;;;;;6127208;23;20332;-75
2022/12/10 04:06:33;;;;;;;;;;;-1.00;99.90;;;;;;6127266;23;19908;-76
2022/12/10 04:08:59;;;;;;;;;;;-1.40;99.90;;;;;;6127423;23;19905;-74
2022/12/10 04:11:25;;;;;;;;;;;-1.70;99.90;;;;;;6127739;23;19908;-75
2022/12/10 04:16:36;;;;;;;;;;;-1.70;99.90;;;;;;6127085;23;19907;-74
2022/12/10 04:19:09;;;;;;;;;;;-1.80;99.90;;;;;;6127561;23;19901;-76
2022/12/10 04:27:07;;;;;;;;;;;-1.30;99.90;;;;;;6127108;23;19947;-76
2022/12/10 04:29:33;;;;;;;;;;;-1.30;99.90;;;;;;6127503;23;19951;-75
2022/12/10 04:31:59;;;;;;;;;;;-1.20;99.90;;;;;;6127457;23;19909;-75
2022/12/10 04:34:25;;;;;;;;;;;-1.20;99.90;;;;;;6101293;23;19908;-75
2022/12/10 04:36:51;;;;;;;;;;;-1.20;99.90;;;;;;6127353;23;20236;-76
2022/12/10 04:39:17;;;;;;;;;;;-1.40;99.90;;;;;;6127350;23;19995;-76
2022/12/10 04:41:43;;;;;;;;;;;-1.70;99.90;;;;;;6127469;23;19901;-74
2022/12/10 04:44:09;;;;;;;;;;;-1.70;99.90;;;;;;6127424;23;19947;-75
2022/12/10 04:46:35;;;;;;;;;;;-1.50;99.90;;;;;;6127306;23;19901;-75
2022/12/10 04:49:00;;;;;;;;;;;-1.40;99.90;;;;;;6127184;23;20316;-75
2022/12/10 04:51:26;;;;;;;;;;;-1.30;99.90;;;;;;6101270;23;20235;-76
2022/12/10 04:53:52;;;;;;;;;;;-1.30;99.90;;;;;;6127184;23;19907;-75
2022/12/10 04:56:17;;;;;;;;;;;-1.30;99.90;;;;;;6127295;23;19901;-76
2022/12/10 04:58:43;;;;;;;;;;;-1.30;99.90;;;;;;6126950;23;19905;-76
2022/12/10 05:01:10;;;;;;;;;;;-1.30;99.90;;;;;;6127195;23;20435;-75
2022/12/10 05:03:36;;;;;;;;;;;-1.30;99.90;;;;;;6126809;23;19904;-76
2022/12/10 05:06:02;;;;;;;;;;;-1.30;99.90;;;;;;6127610;23;19912;-76
2022/12/10 05:08:29;;;;;;;;;;;-1.30;99.90;;;;;;6127306;23;19928;-76
2022/12/10 05:10:55;;;;;;;;;;;-1.50;99.90;;;;;;6127016;23;19992;-74
2022/12/10 05:13:21;;;;;;;;;;;-1.80;99.90;;;;;;6127287;23;19901;-74
2022/12/10 05:15:46;;;;;;;;;;;-2.00;99.90;;;;;;6126956;23;19928;-76
2022/12/10 05:18:12;;;;;;;;;;;-1.90;99.90;;;;;;6128608;23;20316;-76
2022/12/10 05:20:38;;;;;;;;;;;-1.60;99.90;;;;;;6129916;23;19901;-74
2022/12/10 05:25:53;;;;;;;;;;;-1.30;99.90;;;;;;6129217;23;19947;-74
2022/12/10 05:28:22;;;;;;;;;;;-1.30;99.90;;;;;;6129716;23;19924;-74
2022/12/10 05:30:48;;;;;;;;;;;-1.30;99.90;;;;;;6128908;23;19982;-76
2022/12/10 05:33:14;;;;;;;;;;;-1.30;99.90;;;;;;6128978;23;20239;-75
2022/12/10 05:35:39;;;;;;;;;;;-1.30;99.90;;;;;;6129216;23;19908;-75
2022/12/10 05:38:05;;;;;;;;;;;-1.30;99.90;;;;;;6128895;23;20236;-75
2022/12/10 05:40:35;;;;;;;;;;;-1.30;99.90;;;;;;6129343;23;19901;-75
2022/12/10 05:43:00;;;;;;;;;;;-1.30;99.90;;;;;;6128880;23;20380;-75
2022/12/10 05:45:26;;;;;;;;;;;-1.30;99.90;;;;;;6103006;23;19943;-75
2022/12/10 05:47:51;;;;;;;;;;;-1.40;99.90;;;;;;6128684;23;19921;-77
2022/12/10 05:50:17;;;;;;;;;;;-1.40;99.90;;;;;;6128925;23;19928;-75
2022/12/10 05:52:43;;;;;;;;;;;-1.50;99.90;;;;;;6102805;23;19905;-75
2022/12/10 05:55:08;;;;;;;;;;;-1.70;99.90;;;;;;6129104;23;19901;-75
2022/12/10 05:57:35;;;;;;;;;;;-1.80;99.90;;;;;;6128805;23;19955;-75
2022/12/10 06:00:01;;;;;;;;;;;-2.00;99.90;;;;;;6102534;23;20336;-75
2022/12/10 06:02:26;;;;;;;;;;;-1.90;99.90;;;;;;6129282;23;19907;-74
2022/12/10 06:04:52;;;;;;;;;;;-1.70;99.90;;;;;;6128320;23;19947;-75
2022/12/10 06:07:17;;;;;;;;;;;-1.80;99.90;;;;;;6128650;23;20342;-76
2022/12/10 06:09:43;;;;;;;;;;;-1.60;99.90;;;;;;6102738;23;19952;-76
2022/12/10 06:12:09;;;;;;;;;;;-1.70;99.90;;;;;;6128208;23;20243;-74
2022/12/10 06:14:34;;;;;;;;;;;-1.70;99.90;;;;;;6128805;23;19939;-76
2022/12/10 06:17:00;;;;;;;;;;;-1.80;99.90;;;;;;6128462;23;20375;-75
2022/12/10 06:19:25;;;;;;;;;;;-1.80;99.90;;;;;;6128552;23;19929;-76
2022/12/10 06:21:51;;;;;;;;;;;-1.60;99.90;;;;;;6128569;23;19929;-75
2022/12/10 06:24:16;;;;;;;;;;;-1.60;99.90;;;;;;6128087;23;19908;-74
2022/12/10 06:26:42;;;;;;;;;;;-1.60;99.90;;;;;;6129089;23;19901;-75
2022/12/10 06:29:08;;;;;;;;;;;-1.60;99.90;;;;;;6128301;23;19947;-75
2022/12/10 06:31:34;;;;;;;;;;;-1.50;99.90;;;;;;6128546;23;20288;-75
2022/12/10 06:34:00;;;;;;;;;;;-1.50;99.90;;;;;;6128366;23;19979;-75
2022/12/10 06:36:25;;;;;;;;;;;-1.40;99.90;;;;;;6128882;23;19900;-75
2022/12/10 06:38:51;;;;;;;;;;;-1.60;99.90;;;;;;6128537;23;19952;-76
2022/12/10 06:41:20;;;;;;;;;;;-1.60;99.90;;;;;;6128365;23;20300;-76
2022/12/10 06:43:46;;;;;;;;;;;-1.70;99.90;;;;;;6128460;23;19904;-74
2022/12/10 06:46:12;;;;;;;;;;;-1.70;99.90;;;;;;6128411;23;19951;-76
2022/12/10 06:48:38;;;;;;;;;;;-1.70;99.90;;;;;;6128409;23;19929;-76
2022/12/10 06:51:04;;;;;;;;;;;-1.80;99.90;;;;;;6102508;23;19951;-75
2022/12/10 06:53:30;;;;;;;;;;;-2.00;99.90;;;;;;6128104;23;19943;-76
2022/12/10 06:55:59;;;;;;;;;;;-2.10;99.90;;;;;;6128114;23;19907;-77
2022/12/10 06:58:26;;;;;;;;;;;-2.50;99.90;;;;;;6128475;23;19908;-76
2022/12/10 07:00:52;;;;;;;;;;;-2.70;99.90;;;;;;6128228;23;19932;-74
2022/12/10 07:03:17;;;;;;;;;;;-2.70;99.90;;;;;;6128217;23;19924;-76
2022/12/10 07:05:43;;;;;;;;;;;-2.40;99.90;;;;;;6127775;23;19908;-74
2022/12/10 07:08:09;;;;;;;;;;;-2.10;99.90;;;;;;6102085;23;20347;-76
2022/12/10 07:10:36;;;;;;;;;;;-1.90;99.90;;;;;;6128052;23;19944;-75
2022/12/10 07:13:01;;;;;;;;;;;-1.90;99.90;;;;;;6127943;23;19901;-76
2022/12/10 07:15:28;;;;;;;;;;;-1.90;99.90;;;;;;6128050;23;19907;-75
2022/12/10 07:17:53;;;;;;;;;;;-2.00;99.90;;;;;;6101959;23;19901;-75
2022/12/10 07:20:19;;;;;;;;;;;-1.90;99.90;;;;;;6128195;23;20276;-75
2022/12/10 07:22:45;;;;;;;;;;;-1.90;99.90;;;;;;6127839;23;19952;-76
2022/12/10 07:25:10;;;;;;;;;;;-2.00;99.90;;;;;;6128078;23;19915;-75
2022/12/10 07:27:36;;;;;;;;;;;-2.00;99.90;;;;;;6127984;23;19905;-75
2022/12/10 07:30:02;;;;;;;;;;;-1.90;99.90;;;;;;6127769;23;19901;-75
2022/12/10 07:32:28;;;;;;;;;;;-1.70;99.90;;;;;;6127948;23;19908;-76
2022/12/10 07:34:54;;;;;;;;;;;-1.70;99.90;;;;;;6127783;23;20244;-75
2022/12/10 07:37:19;;;;;;;;;;;-1.80;99.90;;;;;;6127741;23;19988;-74
2022/12/10 07:39:45;;;;;;;;;;;-1.80;99.90;;;;;;6127362;23;19907;-76
2022/12/10 07:42:11;;;;;;;;;;;-1.70;99.90;;;;;;6101948;23;19901;-76
2022/12/10 07:44:36;;;;;;;;;;;-1.60;99.90;;;;;;6127611;23;19905;-75
2022/12/10 07:47:02;;;;;;;;;;;-1.60;99.90;;;;;;6127799;23;19928;-74
2022/12/10 07:49:29;;;;;;;;;;;-1.60;99.90;;;;;;6128205;23;19901;-77
2022/12/10 07:51:54;;;;;;;;;;;-1.60;99.90;;;;;;6127811;23;19944;-75
2022/12/10 07:54:20;;;;;;;;;;;-1.50;99.90;;;;;;6127622;23;20279;-75
2022/12/10 07:56:47;;;;;;;;;;;-1.50;99.90;;;;;;6127649;23;20324;-75
2022/12/10 07:59:13;;;;;;;;;;;-1.40;99.90;;;;;;6127507;23;19912;-74
2022/12/10 08:01:38;;;;;;;;;;;-1.40;99.90;;;;;;6127556;23;19905;-75
2022/12/10 08:04:04;;;;;;;;;;;-1.40;99.90;;;;;;6126611;23;19909;-75
2022/12/10 08:06:30;;;;;;;;;;;-1.70;99.90;;;;;;6127834;23;19944;-75
2022/12/10 08:08:57;;;;;;;;;;;-1.90;99.90;;;;;;6127684;23;20217;-75
2022/12/10 08:11:23;;;;;;;;;;;-1.80;99.90;;;;;;6127946;23;19952;-76
2022/12/10 08:13:49;;;;;;;;;;;-1.80;99.90;;;;;;6127705;23;20280;-75
2022/12/10 08:16:16;;;;;;;;;;;-1.80;99.90;;;;;;6127312;23;19983;-75
2022/12/10 08:18:42;;;;;;;;;;;-1.70;99.90;;;;;;6127512;23;19900;-74
2022/12/10 08:21:09;;;;;;;;;;;-1.50;99.90;;;;;;6127352;23;20040;-75
2022/12/10 08:23:35;;;;;;;;;;;-1.10;99.90;;;;;;6127284;23;19916;-75
2022/12/10 08:26:07;;;;;;;;;;;-0.70;99.90;;;;;;6127493;23;19901;-76
2022/12/10 08:28:33;;;;;;;;;;;-0.30;99.90;;;;;;6127567;23;19900;-75
2022/12/10 08:30:59;;;;;;;;;;;0.30;99.90;;;;;;6127675;23;20239;-75
2022/12/10 08:33:25;;;;;;;;;;;1.70;99.90;;;;;;6126951;23;19932;-76
2022/12/10 08:35:50;;;;;;;;;;;3.10;99.90;;;;;;6127459;23;19950;-76
2022/12/10 08:38:16;;;;;;;;;;;4.50;99.90;;;;;;6127125;23;19900;-75
2022/12/10 08:40:42;;;;;;;;;;;5.10;75.50;;;;;;6127252;23;19975;-75
2022/12/10 08:43:08;;;;;;;;;;;5.40;33.80;;;;;;6127021;23;19979;-76
2022/12/10 08:45:33;;;;;;;;;;;5.70;17.90;;;;;;6127433;23;19964;-77
2022/12/10 08:48:00;;;;;;;;;;;6.10;16.70;;;;;;6101460;23;19972;-76
2022/12/10 08:50:25;;;;;;;;;;;6.00;1.10;;;;;;6127451;23;19975;-76
2022/12/10 08:52:51;;;;;;;;;;;5.60;1.00;;;;;;6127508;23;19908;-75
2022/12/10 08:55:16;;;;;;;;;;;5.60;7.40;;;;;;6127090;23;19908;-77
2022/12/10 08:57:42;;;;;;;;;;;6.20;1.00;;;;;;6127281;23;19901;-76
2022/12/10 09:00:08;;;;;;;;;;;6.60;1.00;;;;;;6101173;23;19996;-75
2022/12/10 09:02:33;;;;;;;;;;;8.00;1.00;;;;;;6127417;23;19905;-76
2022/12/10 09:04:59;;;;;;;;;;;8.70;1.00;;;;;;6126838;23;19989;-75
2022/12/10 09:07:25;;;;;;;;;;;8.80;1.00;;;;;;6127271;23;19924;-76
2022/12/10 09:09:50;;;;;;;;;;;9.90;1.00;;;;;;6127310;23;19908;-75
2022/12/10 09:12:16;;;;;;;;;;;11.20;1.00;;;;;;6127064;23;19901;-75
2022/12/10 09:14:41;;;;;;;;;;;11.90;1.00;;;;;;6127617;23;19905;-76
2022/12/10 09:17:07;;;;;;;;;;;12.50;1.00;;;;;;6126936;23;19908;-76
2022/12/10 09:19:33;;;;;;;;;;;12.90;1.00;;;;;;6127375;23;19905;-76
2022/12/10 09:21:58;;;;;;;;;;;13.10;1.00;;;;;;6127561;23;20312;-76
2022/12/10 09:24:24;;;;;;;;;;;12.00;1.00;;;;;;6127075;23;20310;-76
2022/12/10 09:26:50;;;;;;;;;;;10.70;1.00;;;;;;6126961;23;19936;-76
2022/12/10 09:29:17;;;;;;;;;;;8.90;1.00;;;;;;6094925;23;19908;-76
2022/12/10 09:31:42;;;;;;;;;;;9.40;1.00;;;;;;6127538;23;19926;-75
2022/12/10 09:34:08;;;;;;;;;;;10.10;1.00;;;;;;6127524;23;19905;-76
2022/12/10 09:36:34;;;;;;;;;;;11.10;1.00;;;;;;6127566;23;19928;-75
2022/12/10 09:39:00;;;;;;;;;;;13.20;1.00;;;;;;6126114;23;19904;-76
2022/12/10 09:41:28;;;;;;;;;;;15.10;1.00;;;;;;6127245;23;19955;-76
2022/12/10 09:43:54;;;;;;;;;;;16.00;1.00;;;;;;6127085;23;19904;-76
2022/12/10 09:46:25;;;;;;;;;;;16.20;1.00;;;;;;6127090;23;19924;-76
2022/12/10 09:49:02;;;;;;;;;;;15.60;1.00;;;;;;6126587;23;19907;-74
2022/12/10 09:51:34;;;;;;;;;;;13.60;1.00;;;;;;6127133;23;19907;-75
2022/12/10 09:54:00;;;;;;;;;;;13.60;1.00;;;;;;6100969;23;19905;-76
2022/12/10 09:56:28;;;;;;;;;;;13.40;1.00;;;;;;6127108;23;19908;-78
2022/12/10 09:58:54;;;;;;;;;;;14.80;1.00;;;;;;6126554;23;19947;-77
2022/12/10 10:01:22;;;;;;;;;;;15.80;1.00;;;;;;6127329;23;19905;-76
2022/12/10 10:03:48;;;;;;;;;;;16.60;1.00;;;;;;6127592;23;19917;-76
2022/12/10 10:06:14;;;;;;;;;;;15.80;1.00;;;;;;6128439;23;19897;-76
2022/12/10 10:08:45;;;;;;;;;;;14.60;1.00;;;;;;6128116;23;19936;-76
2022/12/10 10:11:18;;;;;;;;;;;13.70;1.00;;;;;;6129190;23;19901;-75
2022/12/10 10:14:01;;;;;;;;;;;12.70;1.00;;;;;;6128889;23;19900;-76
2022/12/10 10:16:48;;;;;;;;;;;12.00;1.00;;;;;;6128684;23;19956;-76
2022/12/10 10:19:22;;;;;;;;;;;12.60;1.00;;;;;;6102619;23;20236;-75
2022/12/10 10:21:49;;;;;;;;;;;12.80;1.00;;;;;;6128465;23;19905;-75
2022/12/10 10:24:16;;;;;;;;;;;13.20;1.00;;;;;;6128294;23;20348;-76
2022/12/10 10:26:43;;;;;;;;;;;14.90;1.00;;;;;;6128326;23;19901;-75
2022/12/10 10:29:11;;;;;;;;;;;16.00;1.00;;;;;;6102143;23;19901;-75
2022/12/10 10:31:39;;;;;;;;;;;15.70;1.00;;;;;;6102619;23;20272;-76
2022/12/10 10:34:11;;;;;;;;;;;16.90;1.00;;;;;;6128255;23;19908;-76
2022/12/10 10:36:37;;;;;;;;;;;18.10;1.00;;;;;;6128046;23;19901;-77
2022/12/10 10:39:21;;;;;;;;;;;17.40;1.00;;;;;;6101848;23;19945;-78
2022/12/10 10:41:50;;;;;;;;;;;16.20;1.00;;;;;;6128481;23;19905;-76
2022/12/10 10:44:18;;;;;;;;;;;17.40;1.00;;;;;;6128251;23;19910;-76
2022/12/10 10:46:45;;;;;;;;;;;19.30;1.00;;;;;;6127310;23;20244;-74
2022/12/10 10:49:19;;;;;;;;;;;20.20;1.00;;;;;;6127721;23;19900;-74
2022/12/10 10:51:47;;;;;;;;;;;20.10;1.00;;;;;;6128174;23;19904;-75
2022/12/10 10:54:31;;;;;;;;;;;21.40;1.00;;;;;;6128103;23;19936;-74
2022/12/10 10:56:56;;;;;;;;;;;22.10;1.00;;;;;;6128851;23;20279;-75
2022/12/10 10:59:35;;;;;;;;;;;21.00;1.00;;;;;;6127906;23;19971;-74
2022/12/10 11:02:14;;;;;;;;;;;20.20;1.00;;;;;;6128335;23;19932;-76
2022/12/10 11:04:49;;;;;;;;;;;20.50;1.00;;;;;;6128128;23;20237;-74
2022/12/10 11:07:26;;;;;;;;;;;20.20;1.00;;;;;;6127945;23;19900;-77
2022/12/10 11:09:53;;;;;;;;;;;20.50;1.00;;;;;;6128157;23;19901;-74
2022/12/10 11:12:38;;;;;;;;;;;21.10;1.00;;;;;;6128091;23;19901;-74
2022/12/10 11:15:22;;;;;;;;;;;21.50;1.00;;;;;;6127760;23;20276;-75
2022/12/10 11:17:52;;;;;;;;;;;22.40;1.00;;;;;;6127855;23;19907;-76
2022/12/10 11:20:17;;;;;;;;;;;21.90;1.00;;;;;;6128199;23;19901;-75
2022/12/10 11:22:49;;;;;;;;;;;20.70;1.00;;;;;;6127705;23;19967;-75
2022/12/10 11:25:14;;;;;;;;;;;20.90;1.00;;;;;;6128627;23;19901;-74
2022/12/10 11:27:58;;;;;;;;;;;21.10;1.00;;;;;;6128117;23;19905;-74
2022/12/10 11:30:25;;;;;;;;;;;21.20;1.00;;;;;;6128138;23;20244;-76
2022/12/10 11:33:09;;;;;;;;;;;21.10;1.00;;;;;;6101640;23;20383;-75
2022/12/10 11:35:54;;;;;;;;;;;22.30;1.00;;;;;;6127749;23;19951;-77
2022/12/10 11:38:20;;;;;;;;;;;23.40;1.00;;;;;;6127894;23;19909;-75
2022/12/10 11:40:57;;;;;;;;;;;24.20;1.00;;;;;;6128777;23;20297;-75
2022/12/10 11:43:25;;;;;;;;;;;24.30;1.00;;;;;;6128064;23;20268;-75
2022/12/10 11:46:09;;;;;;;;;;;24.70;1.00;;;;;;6127767;23;19908;-75
2022/12/10 11:48:44;;;;;;;;;;;24.40;1.00;;;;;;6128021;23;19928;-76
2022/12/10 11:51:32;;;;;;;;;;;24.50;1.00;;;;;;6126710;23;19952;-75
2022/12/10 11:53:58;;;;;;;;;;;24.10;1.00;;;;;;6126737;23;19911;-76
2022/12/10 11:56:30;;;;;;;;;;;24.20;1.00;;;;;;6127860;23;19928;-76
2022/12/10 11:58:56;;;;;;;;;;;24.40;1.00;;;;;;6127713;23;20295;-75
2022/12/10 12:01:27;;;;;;;;;;;24.00;1.00;;;;;;6127875;23;19901;-77
2022/12/10 12:03:52;;;;;;;;;;;24.00;1.00;;;;;;6127239;23;19971;-76
2022/12/10 12:06:24;;;;;;;;;;;23.10;1.00;;;;;;6125386;23;19897;-75
2022/12/10 12:08:59;;;;;;;;;;;22.40;1.00;;;;;;6125252;23;19909;-76
2022/12/10 12:11:40;;;;;;;;;;;23.30;1.00;;;;;;6125173;23;19908;-75
2022/12/10 12:14:16;;;;;;;;;;;22.60;1.00;;;;;;6125510;23;19956;-75
2022/12/10 12:16:44;;;;;;;;;;;22.50;1.00;;;;;;6125099;23;19904;-77
2022/12/10 12:19:16;;;;;;;;;;;22.70;1.00;;;;;;6126134;23;19912;-75
2022/12/10 12:21:42;;;;;;;;;;;22.40;1.00;;;;;;6127365;23;19967;-76
2022/12/10 12:24:22;;;;;;;;;;;21.60;1.00;;;;;;6101307;23;19909;-75
2022/12/10 12:27:02;;;;;;;;;;;21.50;1.00;;;;;;6127594;23;19901;-75
2022/12/10 12:29:30;;;;;;;;;;;21.40;1.00;;;;;;6127512;23;19908;-76
2022/12/10 12:31:59;;;;;;;;;;;21.30;1.00;;;;;;6127531;23;19908;-76
2022/12/10 12:34:26;;;;;;;;;;;19.90;1.00;;;;;;6127475;23;19908;-76
2022/12/10 12:36:52;;;;;;;;;;;19.70;1.00;;;;;;6101387;23;19948;-77
2022/12/10 12:39:28;;;;;;;;;;;20.00;1.00;;;;;;6127582;23;19904;-76
2022/12/10 12:42:09;;;;;;;;;;;19.90;1.00;;;;;;6101179;23;19901;-76
2022/12/10 12:44:49;;;;;;;;;;;20.30;1.00;;;;;;6127477;23;19909;-77
2022/12/10 12:47:33;;;;;;;;;;;21.40;1.00;;;;;;6127466;23;19901;-75
2022/12/10 12:49:59;;;;;;;;;;;21.50;1.00;;;;;;6127037;23;19901;-76
2022/12/10 12:52:37;;;;;;;;;;;22.10;1.00;;;;;;6127899;23;20301;-76
2022/12/10 12:55:23;;;;;;;;;;;21.60;1.00;;;;;;6127274;23;19901;-75
2022/12/10 12:58:12;;;;;;;;;;;21.50;1.00;;;;;;6126334;23;20000;-75
2022/12/10 13:00:40;;;;;;;;;;;20.80;1.00;;;;;;6085714;23;19955;-76
2022/12/10 13:03:27;;;;;;;;;;;21.00;1.00;;;;;;6127199;23;19901;-74
2022/12/10 13:05:54;;;;;;;;;;;20.80;1.00;;;;;;6126582;23;20354;-75
2022/12/10 13:08:19;;;;;;;;;;;20.40;1.00;;;;;;6127451;23;19967;-75
2022/12/10 13:11:15;;;;;;;;;;;21.30;1.00;;;;;;6126994;23;20283;-75
2022/12/10 13:14:01;;;;;;;;;;;21.80;1.00;;;;;;6101016;23;19901;-75
2022/12/10 13:16:41;;;;;;;;;;;22.50;1.00;;;;;;6126916;23;19901;-74
2022/12/10 13:19:18;;;;;;;;;;;22.70;1.00;;;;;;6127114;23;19983;-77
2022/12/10 13:21:57;;;;;;;;;;;22.40;1.00;;;;;;6127208;23;20395;-74
2022/12/10 13:24:35;;;;;;;;;;;22.20;1.00;;;;;;6126979;23;20252;-76
2022/12/10 13:27:04;;;;;;;;;;;21.50;1.00;;;;;;6127015;23;19943;-74
2022/12/10 13:29:43;;;;;;;;;;;22.50;1.00;;;;;;6127499;23;19943;-74
2022/12/10 13:32:16;;;;;;;;;;;24.10;1.00;;;;;;6127430;23;19901;-75
2022/12/10 13:34:42;;;;;;;;;;;24.40;1.00;;;;;;6127283;23;19905;-75
2022/12/10 13:37:16;;;;;;;;;;;24.20;1.00;;;;;;6127040;23;20264;-74
2022/12/10 13:39:53;;;;;;;;;;;23.50;1.00;;;;;;6128755;23;20343;-77
2022/12/10 13:45:06;;;;;;;;;;;22.50;1.00;;;;;;6128626;23;19956;-77
2022/12/10 13:47:48;;;;;;;;;;;23.10;1.00;;;;;;6128824;23;19923;-75
2022/12/10 13:50:17;;;;;;;;;;;23.40;1.00;;;;;;6129086;23;19988;-76
2022/12/10 13:52:58;;;;;;;;;;;22.50;1.00;;;;;;6128876;23;19901;-77
2022/12/10 13:55:24;;;;;;;;;;;18.70;1.00;;;;;;6128757;23;19907;-76
2022/12/10 13:58:08;;;;;;;;;;;15.70;1.00;;;;;;6128766;23;19940;-76
2022/12/10 14:00:48;;;;;;;;;;;14.60;1.00;;;;;;6129196;23;19984;-76
2022/12/10 14:03:20;;;;;;;;;;;14.60;1.00;;;;;;6129150;23;19908;-76
2022/12/10 14:05:51;;;;;;;;;;;14.00;1.00;;;;;;6128208;23;19912;-76
2022/12/10 14:08:18;;;;;;;;;;;14.70;1.00;;;;;;6129015;23;19908;-77
2022/12/10 14:10:44;;;;;;;;;;;13.40;1.00;;;;;;6128678;23;19901;-77
2022/12/10 14:13:11;;;;;;;;;;;13.10;1.00;;;;;;6128814;23;19905;-77
2022/12/10 14:15:37;;;;;;;;;;;12.60;1.00;;;;;;6128521;23;19900;-76
2022/12/10 14:18:13;;;;;;;;;;;11.30;1.00;;;;;;6128699;23;19909;-76
2022/12/10 14:20:46;;;;;;;;;;;11.40;1.00;;;;;;6102332;23;20221;-76
2022/12/10 14:23:41;;;;;;;;;;;11.20;1.00;;;;;;6128476;23;19901;-76
2022/12/10 14:26:10;;;;;;;;;;;10.70;1.00;;;;;;6108993;23;19972;-76
2022/12/10 14:28:44;;;;;;;;;;;10.30;1.00;;;;;;6128507;23;19901;-76
2022/12/10 14:31:13;;;;;;;;;;;10.00;1.00;;;;;;6128474;23;19904;-76
2022/12/10 14:33:38;;;;;;;;;;;9.80;1.00;;;;;;6128505;23;19905;-76
2022/12/10 14:36:04;;;;;;;;;;;9.70;1.00;;;;;;6128865;23;20320;-76
2022/12/10 14:38:32;;;;;;;;;;;9.60;1.00;;;;;;6128400;23;19905;-76
2022/12/10 14:40:58;;;;;;;;;;;9.50;1.00;;;;;;6126992;23;19928;-75
2022/12/10 14:43:26;;;;;;;;;;;9.10;1.00;;;;;;6128249;23;19908;-77
2022/12/10 14:45:55;;;;;;;;;;;8.70;1.00;;;;;;6128994;23;19900;-76